sensor_id;sensor_type;location;lat;lon;timestamp;P1;durP1;ratioP1;P2;durP2;ratioP2
24147;SDS011;12309;51.450;-2.624;2023-07-31T00:00:11;1.80;;;0.50;;
24147;SDS011;12309;51.450;-2.624;2023-07-31T00:02:37;1.88;;;0.47;;
24147;SDS011;12309;51.450;-2.624;2023-07-31T00:05:03;2.33;;;0.70;;
24147;SDS011;12309;51.450;-2.624;2023-07-31T00:07:29;0.50;;;0.30;;
24147;SDS011;12309;51.450;-2.624;2023-07-31T00:09:55;0.63;;;0.43;;
24147;SDS011;12309;51.450;-2.624;2023-07-31T00:15:45;1.30;;;0.43;;
24147;SDS011;12309;51.450;-2.624;2023-07-31T00:18:11;1.73;;;0.60;;
24147;SDS011;12309;51.450;-2.624;2023-07-31T00:20:36;2.35;;;0.70;;
24147;SDS011;12309;51.450;-2.624;2023-07-31T00:23:02;2.15;;;0.60;;
24147;SDS011;12309;51.450;-2.624;2023-07-31T00:25:28;0.80;;;0.50;;
24147;SDS011;12309;51.450;-2.624;2023-07-31T00:27:53;1.25;;;0.52;;
24147;SDS011;12309;51.450;-2.624;2023-07-31T00:30:19;2.80;;;0.77;;
24147;SDS011;12309;51.450;-2.624;2023-07-31T00:32:45;1.45;;;0.52;;
24147;SDS011;12309;51.450;-2.624;2023-07-31T00:35:10;0.75;;;0.30;;
24147;SDS011;12309;51.450;-2.624;2023-07-31T00:37:36;1.25;;;0.43;;
24147;SDS011;12309;51.450;-2.624;2023-07-31T00:40:02;1.73;;;0.50;;
24147;SDS011;12309;51.450;-2.624;2023-07-31T00:42:28;1.10;;;0.50;;
24147;SDS011;12309;51.450;-2.624;2023-07-31T00:44:54;2.05;;;0.45;;
24147;SDS011;12309;51.450;-2.624;2023-07-31T00:47:19;1.48;;;0.60;;
24147;SDS011;12309;51.450;-2.624;2023-07-31T00:49:45;1.08;;;0.50;;
24147;SDS011;12309;51.450;-2.624;2023-07-31T00:52:11;2.28;;;0.57;;
24147;SDS011;12309;51.450;-2.624;2023-07-31T00:54:36;4.68;;;0.45;;
24147;SDS011;12309;51.450;-2.624;2023-07-31T00:57:02;0.73;;;0.47;;
24147;SDS011;12309;51.450;-2.624;2023-07-31T00:59:28;0.80;;;0.47;;
24147;SDS011;12309;51.450;-2.624;2023-07-31T01:01:54;0.50;;;0.30;;
24147;SDS011;12309;51.450;-2.624;2023-07-31T01:04:20;1.38;;;0.60;;
24147;SDS011;12309;51.450;-2.624;2023-07-31T01:06:56;1.95;;;0.52;;
24147;SDS011;12309;51.450;-2.624;2023-07-31T01:10:00;0.85;;;0.50;;
24147;SDS011;12309;51.450;-2.624;2023-07-31T01:12:36;2.05;;;0.40;;
24147;SDS011;12309;51.450;-2.624;2023-07-31T01:15:07;0.90;;;0.40;;
24147;SDS011;12309;51.450;-2.624;2023-07-31T01:17:37;2.47;;;0.30;;
24147;SDS011;12309;51.450;-2.624;2023-07-31T01:20:04;3.42;;;0.40;;
24147;SDS011;12309;51.450;-2.624;2023-07-31T01:28:40;1.63;;;0.30;;
24147;SDS011;12309;51.450;-2.624;2023-07-31T01:31:23;0.52;;;0.30;;
24147;SDS011;12309;51.450;-2.624;2023-07-31T01:33:50;1.13;;;0.40;;
24147;SDS011;12309;51.450;-2.624;2023-07-31T01:36:18;0.75;;;0.30;;
24147;SDS011;12309;51.450;-2.624;2023-07-31T01:38:44;1.08;;;0.40;;
24147;SDS011;12309;51.450;-2.624;2023-07-31T01:41:10;0.22;;;0.22;;
24147;SDS011;12309;51.450;-2.624;2023-07-31T01:43:36;0.65;;;0.20;;
24147;SDS011;12309;51.450;-2.624;2023-07-31T01:46:02;0.75;;;0.17;;
24147;SDS011;12309;51.450;-2.624;2023-07-31T01:48:27;1.02;;;0.20;;
24147;SDS011;12309;51.450;-2.624;2023-07-31T01:50:53;2.10;;;0.30;;
24147;SDS011;12309;51.450;-2.624;2023-07-31T01:53:18;0.30;;;0.20;;
24147;SDS011;12309;51.450;-2.624;2023-07-31T01:55:44;0.32;;;0.20;;
24147;SDS011;12309;51.450;-2.624;2023-07-31T01:58:09;0.25;;;0.20;;
24147;SDS011;12309;51.450;-2.624;2023-07-31T02:00:35;0.85;;;0.30;;
24147;SDS011;12309;51.450;-2.624;2023-07-31T02:03:01;2.50;;;0.52;;
24147;SDS011;12309;51.450;-2.624;2023-07-31T02:05:26;0.65;;;0.40;;
24147;SDS011;12309;51.450;-2.624;2023-07-31T02:07:52;5.10;;;0.80;;
24147;SDS011;12309;51.450;-2.624;2023-07-31T02:10:17;3.38;;;0.70;;
24147;SDS011;12309;51.450;-2.624;2023-07-31T02:12:43;3.38;;;0.80;;
24147;SDS011;12309;51.450;-2.624;2023-07-31T02:15:09;6.40;;;1.20;;
24147;SDS011;12309;51.450;-2.624;2023-07-31T02:17:34;4.38;;;0.88;;
24147;SDS011;12309;51.450;-2.624;2023-07-31T02:20:00;5.05;;;1.20;;
24147;SDS011;12309;51.450;-2.624;2023-07-31T02:22:26;6.57;;;1.40;;
24147;SDS011;12309;51.450;-2.624;2023-07-31T02:24:51;8.90;;;1.90;;
24147;SDS011;12309;51.450;-2.624;2023-07-31T02:27:17;5.20;;;1.38;;
24147;SDS011;12309;51.450;-2.624;2023-07-31T02:29:42;8.40;;;1.58;;
24147;SDS011;12309;51.450;-2.624;2023-07-31T02:32:08;5.70;;;1.52;;
24147;SDS011;12309;51.450;-2.624;2023-07-31T02:34:34;9.10;;;2.08;;
24147;SDS011;12309;51.450;-2.624;2023-07-31T02:37:00;6.10;;;1.83;;
24147;SDS011;12309;51.450;-2.624;2023-07-31T02:39:25;10.63;;;2.38;;
24147;SDS011;12309;51.450;-2.624;2023-07-31T02:41:51;11.68;;;2.17;;
24147;SDS011;12309;51.450;-2.624;2023-07-31T02:44:16;11.95;;;2.30;;
24147;SDS011;12309;51.450;-2.624;2023-07-31T02:46:42;11.38;;;2.13;;
24147;SDS011;12309;51.450;-2.624;2023-07-31T02:49:07;10.98;;;2.45;;
24147;SDS011;12309;51.450;-2.624;2023-07-31T02:51:33;10.60;;;2.03;;
24147;SDS011;12309;51.450;-2.624;2023-07-31T02:53:59;9.35;;;2.22;;
24147;SDS011;12309;51.450;-2.624;2023-07-31T02:56:24;11.38;;;2.15;;
24147;SDS011;12309;51.450;-2.624;2023-07-31T02:58:50;11.57;;;2.47;;
24147;SDS011;12309;51.450;-2.624;2023-07-31T03:01:15;12.43;;;2.88;;
24147;SDS011;12309;51.450;-2.624;2023-07-31T03:03:41;14.00;;;2.90;;
24147;SDS011;12309;51.450;-2.624;2023-07-31T03:06:07;9.63;;;2.38;;
24147;SDS011;12309;51.450;-2.624;2023-07-31T03:08:32;12.73;;;2.95;;
24147;SDS011;12309;51.450;-2.624;2023-07-31T03:10:58;14.35;;;3.20;;
24147;SDS011;12309;51.450;-2.624;2023-07-31T03:13:24;12.32;;;2.85;;
24147;SDS011;12309;51.450;-2.624;2023-07-31T03:15:50;8.18;;;2.10;;
24147;SDS011;12309;51.450;-2.624;2023-07-31T03:18:15;10.73;;;3.08;;
24147;SDS011;12309;51.450;-2.624;2023-07-31T03:20:44;14.25;;;2.60;;
24147;SDS011;12309;51.450;-2.624;2023-07-31T03:23:10;7.68;;;2.50;;
24147;SDS011;12309;51.450;-2.624;2023-07-31T03:25:35;11.10;;;2.15;;
24147;SDS011;12309;51.450;-2.624;2023-07-31T03:28:01;10.13;;;2.47;;
24147;SDS011;12309;51.450;-2.624;2023-07-31T03:30:26;13.15;;;2.67;;
24147;SDS011;12309;51.450;-2.624;2023-07-31T03:32:52;10.50;;;2.40;;
24147;SDS011;12309;51.450;-2.624;2023-07-31T03:35:18;11.90;;;2.55;;
24147;SDS011;12309;51.450;-2.624;2023-07-31T03:37:43;17.05;;;2.78;;
24147;SDS011;12309;51.450;-2.624;2023-07-31T03:40:09;17.52;;;3.13;;
24147;SDS011;12309;51.450;-2.624;2023-07-31T03:42:35;12.75;;;2.97;;
24147;SDS011;12309;51.450;-2.624;2023-07-31T03:45:01;11.73;;;3.00;;
24147;SDS011;12309;51.450;-2.624;2023-07-31T03:47:26;12.75;;;3.22;;
24147;SDS011;12309;51.450;-2.624;2023-07-31T03:49:52;12.25;;;3.33;;
24147;SDS011;12309;51.450;-2.624;2023-07-31T03:52:18;9.23;;;2.50;;
24147;SDS011;12309;51.450;-2.624;2023-07-31T03:54:43;11.02;;;2.92;;
24147;SDS011;12309;51.450;-2.624;2023-07-31T03:57:09;7.32;;;2.60;;
24147;SDS011;12309;51.450;-2.624;2023-07-31T03:59:36;9.25;;;2.78;;
24147;SDS011;12309;51.450;-2.624;2023-07-31T04:02:04;10.50;;;2.88;;
24147;SDS011;12309;51.450;-2.624;2023-07-31T04:04:29;9.30;;;2.97;;
24147;SDS011;12309;51.450;-2.624;2023-07-31T04:06:55;7.03;;;2.47;;
24147;SDS011;12309;51.450;-2.624;2023-07-31T04:09:21;9.80;;;2.47;;
24147;SDS011;12309;51.450;-2.624;2023-07-31T04:11:46;7.03;;;2.63;;
24147;SDS011;12309;51.450;-2.624;2023-07-31T04:14:12;13.93;;;4.22;;
24147;SDS011;12309;51.450;-2.624;2023-07-31T04:16:37;10.55;;;3.05;;
24147;SDS011;12309;51.450;-2.624;2023-07-31T04:19:03;10.90;;;3.50;;
24147;SDS011;12309;51.450;-2.624;2023-07-31T04:21:29;8.05;;;2.70;;
24147;SDS011;12309;51.450;-2.624;2023-07-31T04:23:54;10.18;;;3.35;;
24147;SDS011;12309;51.450;-2.624;2023-07-31T04:26:21;16.73;;;3.15;;
24147;SDS011;12309;51.450;-2.624;2023-07-31T04:28:47;7.32;;;3.10;;
24147;SDS011;12309;51.450;-2.624;2023-07-31T04:31:12;12.68;;;3.38;;
24147;SDS011;12309;51.450;-2.624;2023-07-31T04:33:38;10.35;;;3.42;;
24147;SDS011;12309;51.450;-2.624;2023-07-31T04:36:04;11.50;;;3.45;;
24147;SDS011;12309;51.450;-2.624;2023-07-31T04:38:30;7.50;;;3.47;;
24147;SDS011;12309;51.450;-2.624;2023-07-31T04:40:56;10.73;;;3.97;;
24147;SDS011;12309;51.450;-2.624;2023-07-31T04:43:21;10.45;;;3.55;;
24147;SDS011;12309;51.450;-2.624;2023-07-31T04:45:47;15.10;;;4.43;;
24147;SDS011;12309;51.450;-2.624;2023-07-31T04:48:13;14.68;;;4.72;;
24147;SDS011;12309;51.450;-2.624;2023-07-31T04:50:39;12.65;;;3.85;;
24147;SDS011;12309;51.450;-2.624;2023-07-31T04:53:05;12.25;;;3.97;;
24147;SDS011;12309;51.450;-2.624;2023-07-31T04:55:31;9.13;;;3.72;;
24147;SDS011;12309;51.450;-2.624;2023-07-31T04:57:58;14.93;;;4.53;;
24147;SDS011;12309;51.450;-2.624;2023-07-31T05:00:24;12.38;;;3.80;;
24147;SDS011;12309;51.450;-2.624;2023-07-31T05:02:50;10.55;;;4.00;;
24147;SDS011;12309;51.450;-2.624;2023-07-31T05:05:16;12.43;;;4.35;;
24147;SDS011;12309;51.450;-2.624;2023-07-31T05:07:42;13.02;;;3.78;;
24147;SDS011;12309;51.450;-2.624;2023-07-31T05:10:07;13.63;;;3.92;;
24147;SDS011;12309;51.450;-2.624;2023-07-31T05:12:33;17.25;;;4.43;;
24147;SDS011;12309;51.450;-2.624;2023-07-31T05:14:59;12.82;;;3.83;;
24147;SDS011;12309;51.450;-2.624;2023-07-31T05:17:25;10.75;;;3.95;;
24147;SDS011;12309;51.450;-2.624;2023-07-31T05:19:50;16.33;;;4.43;;
24147;SDS011;12309;51.450;-2.624;2023-07-31T05:22:16;11.43;;;4.00;;
24147;SDS011;12309;51.450;-2.624;2023-07-31T05:24:42;11.15;;;3.70;;
24147;SDS011;12309;51.450;-2.624;2023-07-31T05:27:07;10.70;;;4.50;;
24147;SDS011;12309;51.450;-2.624;2023-07-31T05:29:34;12.27;;;3.75;;
24147;SDS011;12309;51.450;-2.624;2023-07-31T05:32:00;18.25;;;3.92;;
24147;SDS011;12309;51.450;-2.624;2023-07-31T05:34:26;10.15;;;3.92;;
24147;SDS011;12309;51.450;-2.624;2023-07-31T05:36:52;12.75;;;4.60;;
24147;SDS011;12309;51.450;-2.624;2023-07-31T05:39:18;12.95;;;4.07;;
24147;SDS011;12309;51.450;-2.624;2023-07-31T05:41:44;13.00;;;3.95;;
24147;SDS011;12309;51.450;-2.624;2023-07-31T05:44:10;10.68;;;3.75;;
24147;SDS011;12309;51.450;-2.624;2023-07-31T05:46:37;11.50;;;4.25;;
24147;SDS011;12309;51.450;-2.624;2023-07-31T05:49:02;10.23;;;3.63;;
24147;SDS011;12309;51.450;-2.624;2023-07-31T05:51:28;9.05;;;3.80;;
24147;SDS011;12309;51.450;-2.624;2023-07-31T05:53:53;10.95;;;3.35;;
24147;SDS011;12309;51.450;-2.624;2023-07-31T05:56:19;12.73;;;3.90;;
24147;SDS011;12309;51.450;-2.624;2023-07-31T05:58:45;8.65;;;3.40;;
24147;SDS011;12309;51.450;-2.624;2023-07-31T06:01:11;9.20;;;3.42;;
24147;SDS011;12309;51.450;-2.624;2023-07-31T06:03:36;5.40;;;2.88;;
24147;SDS011;12309;51.450;-2.624;2023-07-31T06:06:02;9.40;;;3.95;;
24147;SDS011;12309;51.450;-2.624;2023-07-31T06:08:27;11.65;;;3.05;;
24147;SDS011;12309;51.450;-2.624;2023-07-31T06:10:53;11.90;;;3.28;;
24147;SDS011;12309;51.450;-2.624;2023-07-31T06:13:19;7.72;;;2.97;;
24147;SDS011;12309;51.450;-2.624;2023-07-31T06:15:44;10.40;;;3.10;;
24147;SDS011;12309;51.450;-2.624;2023-07-31T06:18:10;12.13;;;3.88;;
24147;SDS011;12309;51.450;-2.624;2023-07-31T06:20:36;10.30;;;3.20;;
24147;SDS011;12309;51.450;-2.624;2023-07-31T06:23:02;8.60;;;3.10;;
24147;SDS011;12309;51.450;-2.624;2023-07-31T06:25:28;9.38;;;3.10;;
24147;SDS011;12309;51.450;-2.624;2023-07-31T06:27:54;10.25;;;3.40;;
24147;SDS011;12309;51.450;-2.624;2023-07-31T06:30:19;12.27;;;2.95;;
24147;SDS011;12309;51.450;-2.624;2023-07-31T06:32:45;9.65;;;3.08;;
24147;SDS011;12309;51.450;-2.624;2023-07-31T06:35:11;6.95;;;2.75;;
24147;SDS011;12309;51.450;-2.624;2023-07-31T06:37:36;9.65;;;2.60;;
24147;SDS011;12309;51.450;-2.624;2023-07-31T06:40:05;11.98;;;3.35;;
24147;SDS011;12309;51.450;-2.624;2023-07-31T06:42:33;9.30;;;3.10;;
24147;SDS011;12309;51.450;-2.624;2023-07-31T06:45:00;5.57;;;1.98;;
24147;SDS011;12309;51.450;-2.624;2023-07-31T06:47:26;7.20;;;2.90;;
24147;SDS011;12309;51.450;-2.624;2023-07-31T06:49:51;10.02;;;2.70;;
24147;SDS011;12309;51.450;-2.624;2023-07-31T06:52:17;8.55;;;2.38;;
24147;SDS011;12309;51.450;-2.624;2023-07-31T06:54:44;9.48;;;2.53;;
24147;SDS011;12309;51.450;-2.624;2023-07-31T06:57:09;10.82;;;2.45;;
24147;SDS011;12309;51.450;-2.624;2023-07-31T06:59:35;9.18;;;2.50;;
24147;SDS011;12309;51.450;-2.624;2023-07-31T07:02:01;11.00;;;2.72;;
24147;SDS011;12309;51.450;-2.624;2023-07-31T07:04:26;8.98;;;2.90;;
24147;SDS011;12309;51.450;-2.624;2023-07-31T07:06:52;9.52;;;2.22;;
24147;SDS011;12309;51.450;-2.624;2023-07-31T07:09:17;7.60;;;2.58;;
24147;SDS011;12309;51.450;-2.624;2023-07-31T07:11:43;8.15;;;2.80;;
24147;SDS011;12309;51.450;-2.624;2023-07-31T07:14:08;13.07;;;3.38;;
24147;SDS011;12309;51.450;-2.624;2023-07-31T07:16:35;7.53;;;2.78;;
24147;SDS011;12309;51.450;-2.624;2023-07-31T07:19:00;6.40;;;2.30;;
24147;SDS011;12309;51.450;-2.624;2023-07-31T07:21:26;10.10;;;2.20;;
24147;SDS011;12309;51.450;-2.624;2023-07-31T07:23:52;7.40;;;2.50;;
24147;SDS011;12309;51.450;-2.624;2023-07-31T07:26:17;7.95;;;2.60;;
24147;SDS011;12309;51.450;-2.624;2023-07-31T07:28:43;10.90;;;2.15;;
24147;SDS011;12309;51.450;-2.624;2023-07-31T07:31:08;5.13;;;2.05;;
24147;SDS011;12309;51.450;-2.624;2023-07-31T07:33:34;9.35;;;2.35;;
24147;SDS011;12309;51.450;-2.624;2023-07-31T07:36:00;8.18;;;2.08;;
24147;SDS011;12309;51.450;-2.624;2023-07-31T07:38:26;4.07;;;1.75;;
24147;SDS011;12309;51.450;-2.624;2023-07-31T07:40:52;6.90;;;1.70;;
24147;SDS011;12309;51.450;-2.624;2023-07-31T07:43:18;5.22;;;1.48;;
24147;SDS011;12309;51.450;-2.624;2023-07-31T07:45:44;7.68;;;1.73;;
24147;SDS011;12309;51.450;-2.624;2023-07-31T07:48:10;5.25;;;1.38;;
24147;SDS011;12309;51.450;-2.624;2023-07-31T07:50:35;6.88;;;1.75;;
24147;SDS011;12309;51.450;-2.624;2023-07-31T07:53:03;5.05;;;1.65;;
24147;SDS011;12309;51.450;-2.624;2023-07-31T07:55:28;4.35;;;1.48;;
24147;SDS011;12309;51.450;-2.624;2023-07-31T07:57:54;7.93;;;1.90;;
24147;SDS011;12309;51.450;-2.624;2023-07-31T08:00:19;6.95;;;1.98;;
24147;SDS011;12309;51.450;-2.624;2023-07-31T08:02:45;5.22;;;1.80;;
24147;SDS011;12309;51.450;-2.624;2023-07-31T08:05:11;6.57;;;2.30;;
24147;SDS011;12309;51.450;-2.624;2023-07-31T08:07:37;11.00;;;2.25;;
24147;SDS011;12309;51.450;-2.624;2023-07-31T08:10:02;7.80;;;2.53;;
24147;SDS011;12309;51.450;-2.624;2023-07-31T08:12:28;7.43;;;1.73;;
24147;SDS011;12309;51.450;-2.624;2023-07-31T08:14:54;7.28;;;2.05;;
24147;SDS011;12309;51.450;-2.624;2023-07-31T08:17:20;15.02;;;2.45;;
24147;SDS011;12309;51.450;-2.624;2023-07-31T08:19:45;6.38;;;1.88;;
24147;SDS011;12309;51.450;-2.624;2023-07-31T08:22:11;9.23;;;2.15;;
24147;SDS011;12309;51.450;-2.624;2023-07-31T08:24:36;6.55;;;2.08;;
24147;SDS011;12309;51.450;-2.624;2023-07-31T08:27:02;5.70;;;1.98;;
24147;SDS011;12309;51.450;-2.624;2023-07-31T08:29:28;8.70;;;2.38;;
24147;SDS011;12309;51.450;-2.624;2023-07-31T08:31:53;12.80;;;2.80;;
24147;SDS011;12309;51.450;-2.624;2023-07-31T08:34:19;11.38;;;2.70;;
24147;SDS011;12309;51.450;-2.624;2023-07-31T08:36:44;11.60;;;2.88;;
24147;SDS011;12309;51.450;-2.624;2023-07-31T08:39:10;8.07;;;2.40;;
24147;SDS011;12309;51.450;-2.624;2023-07-31T08:41:38;14.38;;;3.35;;
24147;SDS011;12309;51.450;-2.624;2023-07-31T08:44:04;11.15;;;3.13;;
24147;SDS011;12309;51.450;-2.624;2023-07-31T08:46:30;13.65;;;3.70;;
24147;SDS011;12309;51.450;-2.624;2023-07-31T08:48:58;16.80;;;4.03;;
24147;SDS011;12309;51.450;-2.624;2023-07-31T08:51:24;16.00;;;3.90;;
24147;SDS011;12309;51.450;-2.624;2023-07-31T08:53:50;12.07;;;3.88;;
24147;SDS011;12309;51.450;-2.624;2023-07-31T08:56:18;17.27;;;4.13;;
24147;SDS011;12309;51.450;-2.624;2023-07-31T08:58:44;14.63;;;4.32;;
24147;SDS011;12309;51.450;-2.624;2023-07-31T09:01:12;19.45;;;4.45;;
24147;SDS011;12309;51.450;-2.624;2023-07-31T09:03:38;16.98;;;4.95;;
24147;SDS011;12309;51.450;-2.624;2023-07-31T09:06:05;19.83;;;4.50;;
24147;SDS011;12309;51.450;-2.624;2023-07-31T09:08:32;13.98;;;4.57;;
24147;SDS011;12309;51.450;-2.624;2023-07-31T09:11:02;22.75;;;5.10;;
24147;SDS011;12309;51.450;-2.624;2023-07-31T09:13:31;25.67;;;5.50;;
24147;SDS011;12309;51.450;-2.624;2023-07-31T09:15:57;22.15;;;5.18;;
24147;SDS011;12309;51.450;-2.624;2023-07-31T09:18:23;24.15;;;4.60;;
24147;SDS011;12309;51.450;-2.624;2023-07-31T09:21:01;17.73;;;4.32;;
24147;SDS011;12309;51.450;-2.624;2023-07-31T09:23:39;21.05;;;5.20;;
24147;SDS011;12309;51.450;-2.624;2023-07-31T09:26:06;21.30;;;5.32;;
24147;SDS011;12309;51.450;-2.624;2023-07-31T09:28:32;14.65;;;4.72;;
24147;SDS011;12309;51.450;-2.624;2023-07-31T09:30:57;18.45;;;4.93;;
24147;SDS011;12309;51.450;-2.624;2023-07-31T09:33:23;20.52;;;5.57;;
24147;SDS011;12309;51.450;-2.624;2023-07-31T09:35:48;18.35;;;5.35;;
24147;SDS011;12309;51.450;-2.624;2023-07-31T09:38:14;16.70;;;4.85;;
24147;SDS011;12309;51.450;-2.624;2023-07-31T09:40:41;22.00;;;5.47;;
24147;SDS011;12309;51.450;-2.624;2023-07-31T09:43:12;16.25;;;5.05;;
24147;SDS011;12309;51.450;-2.624;2023-07-31T09:45:42;18.48;;;5.47;;
24147;SDS011;12309;51.450;-2.624;2023-07-31T09:48:12;20.17;;;5.30;;
24147;SDS011;12309;51.450;-2.624;2023-07-31T09:50:43;27.27;;;5.72;;
24147;SDS011;12309;51.450;-2.624;2023-07-31T09:53:13;16.92;;;5.10;;
24147;SDS011;12309;51.450;-2.624;2023-07-31T09:55:40;28.50;;;6.25;;
24147;SDS011;12309;51.450;-2.624;2023-07-31T09:58:07;21.75;;;5.88;;
24147;SDS011;12309;51.450;-2.624;2023-07-31T10:00:37;22.80;;;5.63;;
24147;SDS011;12309;51.450;-2.624;2023-07-31T10:03:07;22.88;;;5.72;;
24147;SDS011;12309;51.450;-2.624;2023-07-31T10:05:34;26.30;;;6.15;;
24147;SDS011;12309;51.450;-2.624;2023-07-31T10:08:03;23.30;;;5.18;;
24147;SDS011;12309;51.450;-2.624;2023-07-31T10:10:28;25.00;;;5.80;;
24147;SDS011;12309;51.450;-2.624;2023-07-31T10:12:55;16.65;;;5.68;;
24147;SDS011;12309;51.450;-2.624;2023-07-31T10:15:22;20.58;;;5.32;;
24147;SDS011;12309;51.450;-2.624;2023-07-31T10:17:49;21.73;;;5.72;;
24147;SDS011;12309;51.450;-2.624;2023-07-31T10:20:16;25.48;;;5.43;;
24147;SDS011;12309;51.450;-2.624;2023-07-31T10:22:42;20.27;;;5.28;;
24147;SDS011;12309;51.450;-2.624;2023-07-31T10:25:08;23.52;;;5.28;;
24147;SDS011;12309;51.450;-2.624;2023-07-31T10:27:35;21.10;;;5.28;;
24147;SDS011;12309;51.450;-2.624;2023-07-31T10:30:03;25.13;;;5.53;;
24147;SDS011;12309;51.450;-2.624;2023-07-31T10:32:30;16.73;;;4.70;;
24147;SDS011;12309;51.450;-2.624;2023-07-31T10:34:56;19.15;;;4.22;;
24147;SDS011;12309;51.450;-2.624;2023-07-31T10:42:38;25.23;;;5.32;;
24147;SDS011;12309;51.450;-2.624;2023-07-31T10:45:10;20.88;;;5.05;;
24147;SDS011;12309;51.450;-2.624;2023-07-31T10:47:36;22.20;;;6.00;;
24147;SDS011;12309;51.450;-2.624;2023-07-31T10:50:13;21.25;;;5.18;;
24147;SDS011;12309;51.450;-2.624;2023-07-31T10:52:44;23.20;;;5.15;;
24147;SDS011;12309;51.450;-2.624;2023-07-31T10:55:15;21.05;;;4.80;;
24147;SDS011;12309;51.450;-2.624;2023-07-31T10:57:47;27.80;;;6.43;;
24147;SDS011;12309;51.450;-2.624;2023-07-31T11:00:29;20.40;;;5.50;;
24147;SDS011;12309;51.450;-2.624;2023-07-31T11:10:47;26.60;;;5.78;;
24147;SDS011;12309;51.450;-2.624;2023-07-31T11:13:15;19.20;;;5.45;;
24147;SDS011;12309;51.450;-2.624;2023-07-31T11:15:40;24.33;;;4.90;;
24147;SDS011;12309;51.450;-2.624;2023-07-31T11:18:06;28.40;;;6.18;;
24147;SDS011;12309;51.450;-2.624;2023-07-31T11:20:33;29.70;;;5.70;;
24147;SDS011;12309;51.450;-2.624;2023-07-31T11:23:04;19.83;;;5.63;;
24147;SDS011;12309;51.450;-2.624;2023-07-31T11:25:32;29.40;;;5.25;;
24147;SDS011;12309;51.450;-2.624;2023-07-31T11:28:04;16.75;;;5.15;;
24147;SDS011;12309;51.450;-2.624;2023-07-31T11:30:31;23.13;;;5.13;;
24147;SDS011;12309;51.450;-2.624;2023-07-31T11:32:57;30.33;;;5.25;;
24147;SDS011;12309;51.450;-2.624;2023-07-31T11:35:24;21.45;;;5.93;;
24147;SDS011;12309;51.450;-2.624;2023-07-31T11:37:50;20.95;;;6.10;;
24147;SDS011;12309;51.450;-2.624;2023-07-31T11:40:17;22.58;;;5.20;;
24147;SDS011;12309;51.450;-2.624;2023-07-31T11:42:43;28.00;;;7.00;;
24147;SDS011;12309;51.450;-2.624;2023-07-31T11:45:09;25.02;;;5.55;;
24147;SDS011;12309;51.450;-2.624;2023-07-31T11:47:36;23.60;;;5.20;;
24147;SDS011;12309;51.450;-2.624;2023-07-31T11:50:03;20.70;;;5.78;;
24147;SDS011;12309;51.450;-2.624;2023-07-31T11:52:32;25.08;;;5.22;;
24147;SDS011;12309;51.450;-2.624;2023-07-31T11:55:01;18.73;;;5.60;;
24147;SDS011;12309;51.450;-2.624;2023-07-31T11:57:28;21.50;;;5.65;;
24147;SDS011;12309;51.450;-2.624;2023-07-31T11:59:54;21.48;;;5.70;;
24147;SDS011;12309;51.450;-2.624;2023-07-31T12:02:21;18.25;;;5.00;;
24147;SDS011;12309;51.450;-2.624;2023-07-31T12:04:47;17.85;;;5.45;;
24147;SDS011;12309;51.450;-2.624;2023-07-31T12:07:13;20.98;;;5.20;;
24147;SDS011;12309;51.450;-2.624;2023-07-31T12:09:49;19.05;;;5.10;;
24147;SDS011;12309;51.450;-2.624;2023-07-31T12:12:25;17.58;;;4.88;;
24147;SDS011;12309;51.450;-2.624;2023-07-31T12:14:50;17.15;;;4.95;;
24147;SDS011;12309;51.450;-2.624;2023-07-31T12:17:17;15.73;;;4.18;;
24147;SDS011;12309;51.450;-2.624;2023-07-31T12:19:45;22.58;;;5.18;;
24147;SDS011;12309;51.450;-2.624;2023-07-31T12:22:14;14.13;;;4.55;;
24147;SDS011;12309;51.450;-2.624;2023-07-31T12:24:41;20.65;;;5.07;;
24147;SDS011;12309;51.450;-2.624;2023-07-31T12:27:13;13.13;;;4.85;;
24147;SDS011;12309;51.450;-2.624;2023-07-31T12:29:43;14.25;;;3.95;;
24147;SDS011;12309;51.450;-2.624;2023-07-31T12:32:19;14.90;;;4.63;;
24147;SDS011;12309;51.450;-2.624;2023-07-31T12:34:49;19.48;;;4.93;;
24147;SDS011;12309;51.450;-2.624;2023-07-31T12:37:15;19.00;;;5.22;;
24147;SDS011;12309;51.450;-2.624;2023-07-31T12:39:41;17.85;;;5.18;;
24147;SDS011;12309;51.450;-2.624;2023-07-31T12:42:07;18.40;;;5.30;;
24147;SDS011;12309;51.450;-2.624;2023-07-31T12:44:32;19.95;;;5.25;;
24147;SDS011;12309;51.450;-2.624;2023-07-31T12:46:58;16.48;;;4.70;;
24147;SDS011;12309;51.450;-2.624;2023-07-31T12:49:24;16.83;;;4.47;;
24147;SDS011;12309;51.450;-2.624;2023-07-31T12:51:49;15.77;;;5.03;;
24147;SDS011;12309;51.450;-2.624;2023-07-31T12:54:15;13.38;;;5.05;;
24147;SDS011;12309;51.450;-2.624;2023-07-31T12:56:41;10.50;;;4.07;;
24147;SDS011;12309;51.450;-2.624;2023-07-31T12:59:06;11.30;;;4.15;;
24147;SDS011;12309;51.450;-2.624;2023-07-31T13:01:32;10.40;;;4.20;;
24147;SDS011;12309;51.450;-2.624;2023-07-31T13:03:57;15.77;;;5.18;;
24147;SDS011;12309;51.450;-2.624;2023-07-31T13:06:24;15.48;;;5.03;;
24147;SDS011;12309;51.450;-2.624;2023-07-31T13:08:50;14.02;;;4.70;;
24147;SDS011;12309;51.450;-2.624;2023-07-31T13:11:16;15.60;;;4.63;;
24147;SDS011;12309;51.450;-2.624;2023-07-31T13:13:42;14.32;;;4.70;;
24147;SDS011;12309;51.450;-2.624;2023-07-31T13:16:07;9.73;;;3.58;;
24147;SDS011;12309;51.450;-2.624;2023-07-31T13:18:33;11.85;;;4.28;;
24147;SDS011;12309;51.450;-2.624;2023-07-31T13:20:58;13.70;;;4.20;;
24147;SDS011;12309;51.450;-2.624;2023-07-31T13:23:24;12.35;;;4.45;;
24147;SDS011;12309;51.450;-2.624;2023-07-31T13:25:49;14.07;;;4.25;;
24147;SDS011;12309;51.450;-2.624;2023-07-31T13:28:15;13.65;;;4.20;;
24147;SDS011;12309;51.450;-2.624;2023-07-31T13:30:41;14.68;;;4.35;;
24147;SDS011;12309;51.450;-2.624;2023-07-31T13:33:07;11.27;;;4.25;;
24147;SDS011;12309;51.450;-2.624;2023-07-31T13:35:32;12.05;;;4.45;;
24147;SDS011;12309;51.450;-2.624;2023-07-31T13:37:58;12.30;;;4.35;;
24147;SDS011;12309;51.450;-2.624;2023-07-31T13:40:24;11.25;;;3.97;;
24147;SDS011;12309;51.450;-2.624;2023-07-31T13:42:49;12.50;;;4.20;;
24147;SDS011;12309;51.450;-2.624;2023-07-31T13:45:15;16.13;;;4.93;;
24147;SDS011;12309;51.450;-2.624;2023-07-31T13:47:41;13.60;;;4.32;;
24147;SDS011;12309;51.450;-2.624;2023-07-31T13:50:07;14.02;;;4.22;;
24147;SDS011;12309;51.450;-2.624;2023-07-31T13:52:33;17.17;;;4.65;;
24147;SDS011;12309;51.450;-2.624;2023-07-31T13:54:58;15.18;;;3.97;;
24147;SDS011;12309;51.450;-2.624;2023-07-31T13:57:24;18.02;;;4.80;;
24147;SDS011;12309;51.450;-2.624;2023-07-31T13:59:49;16.45;;;5.13;;
24147;SDS011;12309;51.450;-2.624;2023-07-31T14:02:15;14.05;;;4.30;;
24147;SDS011;12309;51.450;-2.624;2023-07-31T14:04:40;20.77;;;5.00;;
24147;SDS011;12309;51.450;-2.624;2023-07-31T14:07:06;16.02;;;5.00;;
24147;SDS011;12309;51.450;-2.624;2023-07-31T14:09:32;16.25;;;4.60;;
24147;SDS011;12309;51.450;-2.624;2023-07-31T14:11:57;16.98;;;4.97;;
24147;SDS011;12309;51.450;-2.624;2023-07-31T14:14:23;12.32;;;4.43;;
24147;SDS011;12309;51.450;-2.624;2023-07-31T14:16:49;15.57;;;4.72;;
24147;SDS011;12309;51.450;-2.624;2023-07-31T14:19:14;13.35;;;4.47;;
24147;SDS011;12309;51.450;-2.624;2023-07-31T14:21:40;14.40;;;4.00;;
24147;SDS011;12309;51.450;-2.624;2023-07-31T14:24:05;14.00;;;4.53;;
24147;SDS011;12309;51.450;-2.624;2023-07-31T14:26:31;11.70;;;4.30;;
24147;SDS011;12309;51.450;-2.624;2023-07-31T14:28:57;10.23;;;4.03;;
24147;SDS011;12309;51.450;-2.624;2023-07-31T14:31:23;12.10;;;3.58;;
24147;SDS011;12309;51.450;-2.624;2023-07-31T14:33:48;8.27;;;3.40;;
24147;SDS011;12309;51.450;-2.624;2023-07-31T14:36:14;12.68;;;3.97;;
24147;SDS011;12309;51.450;-2.624;2023-07-31T14:38:39;9.82;;;3.70;;
24147;SDS011;12309;51.450;-2.624;2023-07-31T14:41:05;10.18;;;3.60;;
24147;SDS011;12309;51.450;-2.624;2023-07-31T14:43:30;11.68;;;3.90;;